Time;durP1;ratioP1;P1;durP2;ratioP2;P2;SDS_P1;SDS_P2;PMS_P1;PMS_P2;Temp;Humidity;BMP_temperature;BMP_pressure;BME280_temperature;BME280_humidity;BME280_pressure;Samples;Min_cycle;Max_cycle;Signal;HPM_P1;HPM_P2
2022/07/14 00:00:44;;;;;;;1.23;0.50;;;12.60;71.00;;;;;;5011635;28;20022;-64
2022/07/14 00:03:11;;;;;;;1.83;0.20;;;12.80;70.60;;;;;;5009692;28;20025;-64
2022/07/14 00:05:38;;;;;;;3.40;0.43;;;12.90;69.50;;;;;;5007014;28;20041;-63
2022/07/14 00:08:06;;;;;;;1.08;0.50;;;12.90;69.60;;;;;;5009782;28;20029;-64
2022/07/14 00:10:33;;;;;;;0.98;0.20;;;12.90;70.00;;;;;;4998231;28;20079;-64
2022/07/14 00:13:01;;;;;;;1.48;0.40;;;12.90;70.20;;;;;;5009401;28;20123;-64
2022/07/14 00:15:29;;;;;;;0.93;0.28;;;12.90;69.60;;;;;;5004323;28;20046;-63
2022/07/14 00:17:58;;;;;;;4.90;0.60;;;12.90;70.60;;;;;;5006728;28;20116;-64
2022/07/14 00:20:26;;;;;;;2.53;0.28;;;12.90;69.80;;;;;;5008040;28;20060;-65
2022/07/14 00:22:56;;;;;;;4.22;0.40;;;13.00;69.80;;;;;;5008809;28;20014;-64
2022/07/14 00:25:25;;;;;;;4.82;1.05;;;13.10;68.90;;;;;;5010762;28;20040;-64
2022/07/14 00:27:53;;;;;;;1.95;0.30;;;13.10;69.20;;;;;;5009251;28;20395;-64
2022/07/14 00:30:23;;;;;;;0.77;0.40;;;13.20;70.10;;;;;;5005704;28;20033;-67
2022/07/14 00:32:51;;;;;;;1.65;0.43;;;13.30;70.20;;;;;;5009349;28;20028;-66
2022/07/14 00:35:21;;;;;;;3.03;0.90;;;13.40;70.00;;;;;;5009916;28;20041;-67
2022/07/14 00:37:49;;;;;;;0.75;0.35;;;13.50;70.30;;;;;;5003839;28;20356;-67
2022/07/14 00:40:16;;;;;;;0.82;0.28;;;13.60;69.50;;;;;;5010874;28;20030;-67
2022/07/14 00:42:49;;;;;;;5.78;0.60;;;13.70;69.30;;;;;;5009649;28;20150;-65
2022/07/14 00:45:19;;;;;;;1.08;0.30;;;13.80;69.10;;;;;;5005870;28;20037;-65
2022/07/14 00:47:47;;;;;;;3.33;0.52;;;13.90;68.60;;;;;;5010639;28;20127;-65
2022/07/14 00:50:18;;;;;;;2.13;0.45;;;13.90;67.80;;;;;;5009554;28;20106;-66
2022/07/14 00:52:47;;;;;;;3.53;0.50;;;13.80;68.70;;;;;;5010600;28;20109;-67
2022/07/14 00:55:15;;;;;;;1.73;0.32;;;13.80;68.60;;;;;;5010464;28;20026;-65
2022/07/14 00:57:43;;;;;;;2.17;0.40;;;13.80;69.20;;;;;;5008688;28;20467;-65
2022/07/14 01:00:14;;;;;;;1.08;0.40;;;14.00;68.50;;;;;;5010497;28;20025;-64
2022/07/14 01:02:43;;;;;;;3.30;0.50;;;14.30;68.10;;;;;;5008554;28;20026;-63
2022/07/14 01:05:10;;;;;;;2.38;0.57;;;14.60;67.70;;;;;;5008792;28;20026;-64
2022/07/14 01:07:37;;;;;;;3.72;0.40;;;14.70;66.60;;;;;;5008000;28;20092;-63
2022/07/14 01:10:06;;;;;;;1.75;0.40;;;14.60;66.60;;;;;;5007187;28;20025;-63
2022/07/14 01:12:34;;;;;;;3.22;0.85;;;14.70;66.90;;;;;;5009880;28;20053;-63
2022/07/14 01:15:02;;;;;;;3.60;0.50;;;14.80;67.40;;;;;;5010336;28;20041;-64
2022/07/14 01:17:29;;;;;;;2.00;0.45;;;14.90;67.10;;;;;;5009706;28;20026;-63
2022/07/14 01:19:57;;;;;;;0.50;0.43;;;14.90;66.40;;;;;;5008584;28;20030;-63
2022/07/14 01:22:24;;;;;;;3.95;0.50;;;14.80;66.70;;;;;;5006217;28;20026;-64
2022/07/14 01:24:51;;;;;;;4.88;0.50;;;14.50;67.40;;;;;;5008177;28;20087;-64
2022/07/14 01:27:18;;;;;;;1.45;0.60;;;14.40;67.50;;;;;;5010240;28;20044;-64
2022/07/14 01:29:45;;;;;;;1.33;0.35;;;14.50;67.90;;;;;;5009947;28;20026;-64
2022/07/14 01:32:13;;;;;;;7.75;1.02;;;14.70;66.60;;;;;;5006978;28;20037;-63
2022/07/14 01:34:40;;;;;;;2.17;0.70;;;14.70;66.70;;;;;;5008445;28;20079;-65
2022/07/14 01:37:07;;;;;;;5.10;0.50;;;14.60;67.30;;;;;;5008915;28;20026;-65
2022/07/14 01:39:35;;;;;;;2.67;0.80;;;14.60;67.70;;;;;;5008648;28;20026;-64
2022/07/14 01:42:02;;;;;;;2.42;0.73;;;14.70;67.20;;;;;;5008161;28;20057;-62
2022/07/14 01:44:29;;;;;;;3.28;0.77;;;14.80;67.70;;;;;;5000930;28;20030;-64
2022/07/14 01:46:56;;;;;;;4.22;0.88;;;14.90;67.00;;;;;;5007341;28;20042;-65
2022/07/14 01:49:30;;;;;;;7.18;0.85;;;14.90;66.80;;;;;;5008850;28;20060;-64
2022/07/14 01:51:57;;;;;;;2.03;0.50;;;15.00;66.80;;;;;;5008150;28;20046;-62
2022/07/14 01:54:27;;;;;;;2.83;0.43;;;15.10;65.70;;;;;;5007911;28;20066;-64
2022/07/14 01:56:54;;;;;;;5.60;0.80;;;15.20;65.00;;;;;;5008084;28;20030;-64
2022/07/14 01:59:22;;;;;;;2.05;0.43;;;15.10;65.70;;;;;;5009413;28;20054;-63
2022/07/14 02:01:49;;;;;;;2.55;0.70;;;15.10;66.00;;;;;;5009882;28;20037;-63
2022/07/14 02:04:19;;;;;;;5.00;0.70;;;15.10;65.10;;;;;;4989988;28;20053;-64
2022/07/14 02:06:47;;;;;;;3.25;0.70;;;15.00;66.10;;;;;;5001741;28;20072;-63
2022/07/14 02:09:14;;;;;;;1.55;0.50;;;15.00;66.50;;;;;;5000425;28;20030;-64
2022/07/14 02:14:28;;;;;;;3.20;0.32;;;15.40;65.20;;;;;;5003100;28;20123;-66
2022/07/14 02:16:55;;;;;;;1.15;0.68;;;15.60;63.30;;;;;;5007030;28;20022;-67
2022/07/14 02:19:27;;;;;;;3.00;0.65;;;15.40;63.00;;;;;;5000318;28;20030;-65
2022/07/14 02:21:55;;;;;;;2.60;0.50;;;15.20;64.60;;;;;;5003338;28;20053;-65
2022/07/14 02:24:24;;;;;;;5.45;0.90;;;15.10;64.30;;;;;;5001444;28;20038;-67
2022/07/14 02:26:51;;;;;;;3.10;0.30;;;15.20;64.10;;;;;;5008332;28;20014;-66
2022/07/14 02:29:21;;;;;;;3.78;1.10;;;15.40;64.30;;;;;;5004953;28;20022;-66
2022/07/14 02:31:48;;;;;;;1.00;0.50;;;15.60;63.70;;;;;;5003728;28;20045;-66
2022/07/14 02:34:16;;;;;;;2.65;0.95;;;15.70;62.90;;;;;;5013009;28;20033;-65
2022/07/14 02:36:44;;;;;;;7.28;0.63;;;15.80;62.90;;;;;;5009237;28;20847;-66
2022/07/14 02:39:13;;;;;;;0.98;0.75;;;15.80;62.30;;;;;;5013249;28;20026;-67
2022/07/14 02:41:40;;;;;;;2.25;0.65;;;15.90;62.80;;;;;;5006770;28;20022;-66
2022/07/14 02:44:08;;;;;;;3.05;0.52;;;15.90;61.50;;;;;;5005019;28;20152;-64
2022/07/14 02:46:36;;;;;;;5.45;0.65;;;16.00;61.70;;;;;;5015171;28;20172;-64
2022/07/14 02:49:04;;;;;;;7.47;0.73;;;16.20;60.90;;;;;;5007004;28;20030;-62
2022/07/14 02:51:32;;;;;;;2.95;1.02;;;16.20;61.80;;;;;;5006916;28;20126;-65
2022/07/14 02:53:59;;;;;;;3.17;0.70;;;16.10;60.70;;;;;;5007653;28;20030;-66
2022/07/14 02:56:26;;;;;;;5.95;0.63;;;16.10;61.90;;;;;;5003974;28;20021;-67
2022/07/14 02:58:54;;;;;;;3.97;1.25;;;16.10;61.00;;;;;;5003138;28;20044;-66
2022/07/14 03:01:21;;;;;;;2.08;0.60;;;15.90;61.30;;;;;;5013055;28;20014;-65
2022/07/14 03:03:49;;;;;;;1.90;0.80;;;15.80;62.60;;;;;;5021978;28;20029;-64
2022/07/14 03:06:19;;;;;;;1.17;0.30;;;15.80;61.90;;;;;;5013279;28;20029;-65
2022/07/14 03:08:46;;;;;;;4.32;0.70;;;15.70;62.10;;;;;;5014728;28;20131;-64
2022/07/14 03:11:14;;;;;;;10.13;1.08;;;15.80;61.50;;;;;;5009719;28;20025;-64
2022/07/14 03:13:42;;;;;;;2.50;0.50;;;15.70;61.40;;;;;;5012077;28;20548;-65
2022/07/14 03:16:10;;;;;;;6.10;0.70;;;15.60;62.70;;;;;;5009877;28;20484;-65
2022/07/14 03:18:39;;;;;;;2.33;0.50;;;15.70;63.80;;;;;;5008813;28;20037;-67
2022/07/14 03:21:12;;;;;;;4.00;0.73;;;15.70;61.90;;;;;;5011157;28;20026;-64
2022/07/14 03:23:40;;;;;;;4.47;0.70;;;15.80;63.40;;;;;;5008100;28;20030;-65
2022/07/14 03:26:07;;;;;;;1.83;0.60;;;15.80;63.10;;;;;;5016293;28;20483;-65
2022/07/14 03:28:35;;;;;;;3.67;0.60;;;15.80;62.50;;;;;;5009666;28;20076;-66
2022/07/14 03:31:02;;;;;;;3.60;0.60;;;15.80;62.40;;;;;;5010883;28;20037;-63
2022/07/14 03:33:30;;;;;;;4.95;0.68;;;15.60;63.30;;;;;;5010184;28;20037;-62
2022/07/14 03:35:57;;;;;;;5.78;0.73;;;15.50;63.40;;;;;;5007635;28;20030;-63
2022/07/14 03:38:24;;;;;;;4.40;0.70;;;15.40;63.20;;;;;;5015090;28;20030;-63
2022/07/14 03:40:52;;;;;;;5.78;0.88;;;15.40;63.20;;;;;;5016517;28;20025;-64
2022/07/14 03:43:19;;;;;;;1.50;0.80;;;15.30;63.40;;;;;;5022220;28;20056;-63
2022/07/14 03:45:46;;;;;;;3.78;0.75;;;15.20;63.80;;;;;;5015134;28;20558;-64
2022/07/14 03:48:14;;;;;;;3.83;0.50;;;15.20;63.80;;;;;;5015150;28;20129;-64
2022/07/14 03:50:42;;;;;;;2.60;0.70;;;15.10;63.90;;;;;;5003901;28;20050;-63
2022/07/14 03:53:09;;;;;;;3.72;0.90;;;15.10;63.30;;;;;;5010182;28;20113;-62
2022/07/14 03:55:36;;;;;;;2.15;0.40;;;15.20;64.60;;;;;;5018846;28;20421;-62
2022/07/14 03:58:03;;;;;;;4.85;0.70;;;15.20;63.40;;;;;;5018389;28;20103;-62
2022/07/14 04:00:32;;;;;;;2.97;0.40;;;15.20;64.30;;;;;;5022520;28;20048;-62
2022/07/14 04:02:59;;;;;;;1.25;0.47;;;15.10;63.80;;;;;;5018077;28;20021;-66
2022/07/14 04:05:26;;;;;;;10.40;0.70;;;15.00;63.80;;;;;;5017105;28;20076;-62
2022/07/14 04:07:54;;;;;;;5.80;0.80;;;14.90;63.70;;;;;;5004768;28;20584;-61
2022/07/14 04:10:21;;;;;;;2.63;0.35;;;14.80;64.70;;;;;;5009228;28;20025;-64
2022/07/14 04:12:48;;;;;;;4.70;0.98;;;14.70;65.80;;;;;;5009389;28;20117;-62
2022/07/14 04:15:16;;;;;;;3.85;0.50;;;14.70;65.20;;;;;;5008797;28;20037;-63
2022/07/14 04:17:43;;;;;;;1.73;1.02;;;14.90;64.90;;;;;;5014848;28;20033;-63
2022/07/14 04:20:11;;;;;;;3.33;0.55;;;15.00;64.80;;;;;;5005801;28;20104;-63
2022/07/14 04:22:38;;;;;;;2.90;0.98;;;15.20;64.40;;;;;;5026543;28;20075;-62
2022/07/14 04:25:06;;;;;;;5.30;0.88;;;15.40;62.50;;;;;;5010245;28;20026;-62
2022/07/14 04:27:36;;;;;;;3.85;0.52;;;15.50;62.40;;;;;;5008409;28;20053;-63
2022/07/14 04:30:04;;;;;;;4.70;0.77;;;15.70;61.90;;;;;;5005179;28;20045;-63
2022/07/14 04:32:31;;;;;;;3.58;0.77;;;15.70;61.10;;;;;;5004640;28;20120;-64
2022/07/14 04:34:58;;;;;;;5.05;0.75;;;15.70;61.80;;;;;;5010934;28;20420;-63
2022/07/14 04:37:26;;;;;;;3.17;0.38;;;15.70;62.50;;;;;;5013705;28;20100;-63
2022/07/14 04:39:54;;;;;;;5.43;0.60;;;15.80;61.30;;;;;;5018544;28;20535;-63
2022/07/14 04:42:22;;;;;;;2.28;0.75;;;15.80;60.50;;;;;;5005398;28;20022;-63
2022/07/14 04:44:50;;;;;;;4.00;0.50;;;15.80;59.80;;;;;;5017196;28;20248;-63
2022/07/14 04:47:18;;;;;;;4.95;0.60;;;15.80;60.40;;;;;;5008162;28;20546;-63
2022/07/14 04:52:30;;;;;;;2.78;0.47;;;15.90;60.30;;;;;;5010867;28;20033;-63
2022/07/14 04:54:57;;;;;;;1.25;0.63;;;15.80;60.00;;;;;;5007972;28;20039;-63
2022/07/14 04:57:30;;;;;;;5.38;0.52;;;15.70;60.50;;;;;;5005967;28;20037;-63
2022/07/14 04:59:57;;;;;;;2.40;0.57;;;15.60;61.40;;;;;;5010563;28;20034;-63
2022/07/14 05:02:25;;;;;;;2.75;0.43;;;15.50;60.20;;;;;;5003408;28;20022;-63
2022/07/14 05:04:52;;;;;;;3.03;0.40;;;15.50;61.10;;;;;;5010190;28;20041;-63
2022/07/14 05:07:19;;;;;;;5.18;1.35;;;15.60;61.80;;;;;;5014843;28;20048;-68
2022/07/14 05:09:46;;;;;;;2.17;0.38;;;15.60;60.80;;;;;;5004305;28;20075;-63
2022/07/14 05:12:16;;;;;;;1.13;0.50;;;15.60;61.70;;;;;;5028984;28;20084;-63
2022/07/14 05:14:43;;;;;;;2.10;0.50;;;15.50;62.60;;;;;;5005951;28;20061;-62
2022/07/14 05:17:11;;;;;;;4.40;1.35;;;15.20;62.60;;;;;;5006887;28;20025;-63
2022/07/14 05:19:39;;;;;;;5.10;0.63;;;15.10;62.70;;;;;;5007956;28;20034;-63
2022/07/14 05:22:06;;;;;;;2.83;0.50;;;15.10;63.80;;;;;;5013791;28;20046;-62
2022/07/14 05:24:34;;;;;;;1.85;0.50;;;15.20;63.00;;;;;;5002608;28;20157;-64
2022/07/14 05:27:02;;;;;;;3.72;0.70;;;15.30;62.50;;;;;;5004254;28;20442;-65
2022/07/14 05:29:29;;;;;;;2.97;1.15;;;15.50;62.40;;;;;;5005270;28;20434;-65
2022/07/14 05:31:58;;;;;;;1.48;0.50;;;15.60;60.40;;;;;;5003534;28;20029;-59
2022/07/14 05:34:25;;;;;;;4.25;0.70;;;15.50;60.90;;;;;;5002767;28;20026;-59
2022/07/14 05:36:52;;;;;;;3.92;2.83;;;15.50;61.00;;;;;;5009893;28;20387;-59
2022/07/14 05:39:19;;;;;;;2.83;2.22;;;15.30;61.10;;;;;;5016036;28;20060;-59
2022/07/14 05:41:47;;;;;;;10.20;6.05;;;15.00;60.50;;;;;;5008652;28;20116;-59
2022/07/14 05:44:14;;;;;;;11.05;7.65;;;14.70;61.20;;;;;;5009873;28;20120;-60
2022/07/14 05:46:41;;;;;;;9.43;6.68;;;14.50;62.70;;;;;;5012717;28;20495;-60
2022/07/14 05:49:08;;;;;;;7.07;5.60;;;14.30;63.10;;;;;;5021746;28;20061;-60
2022/07/14 05:51:35;;;;;;;13.25;7.63;;;14.10;62.80;;;;;;4998979;28;20034;-60
2022/07/14 05:54:03;;;;;;;6.30;1.55;;;14.10;63.30;;;;;;5020351;28;20080;-59
2022/07/14 05:56:30;;;;;;;8.38;3.67;;;14.00;62.50;;;;;;5009905;28;20065;-59
2022/07/14 05:58:57;;;;;;;3.72;1.23;;;14.00;62.80;;;;;;5025530;28;20493;-59
2022/07/14 06:01:24;;;;;;;2.05;1.20;;;14.00;62.90;;;;;;5019328;28;20025;-59
2022/07/14 06:03:56;;;;;;;7.18;3.38;;;14.00;63.70;;;;;;5021899;28;20029;-60
2022/07/14 06:06:24;;;;;;;3.20;0.70;;;13.90;64.10;;;;;;5028112;28;20025;-59
2022/07/14 06:08:51;;;;;;;3.17;0.80;;;13.80;63.50;;;;;;5016312;28;20148;-59
2022/07/14 06:11:19;;;;;;;2.67;0.63;;;13.70;64.70;;;;;;5020276;28;20064;-58
2022/07/14 06:13:46;;;;;;;2.63;0.47;;;13.60;64.70;;;;;;5021667;28;20037;-59
2022/07/14 06:16:14;;;;;;;3.45;0.80;;;13.40;64.90;;;;;;5014734;28;20060;-59
2022/07/14 06:18:41;;;;;;;5.30;0.93;;;13.40;65.10;;;;;;5013325;28;20033;-59
2022/07/14 06:21:11;;;;;;;1.50;0.47;;;13.30;64.90;;;;;;5026567;28;20064;-60
2022/07/14 06:23:39;;;;;;;2.55;1.42;;;13.20;65.30;;;;;;5021618;28;20021;-61
2022/07/14 06:26:12;;;;;;;3.47;1.05;;;13.10;65.80;;;;;;5029793;28;20032;-61
2022/07/14 06:28:41;;;;;;;1.73;0.90;;;13.10;65.10;;;;;;5015911;28;20371;-61
2022/07/14 06:31:09;;;;;;;4.28;1.30;;;13.10;64.80;;;;;;5027542;28;20022;-61
2022/07/14 06:33:36;;;;;;;7.38;1.88;;;13.00;65.00;;;;;;5020888;28;20025;-60
2022/07/14 06:36:04;;;;;;;6.93;2.97;;;12.90;64.90;;;;;;5019236;28;20677;-61
2022/07/14 06:38:31;;;;;;;4.55;1.55;;;12.90;65.10;;;;;;5011204;28;20022;-61
2022/07/14 06:40:59;;;;;;;2.50;1.08;;;12.80;65.50;;;;;;5000195;28;20033;-61
2022/07/14 06:43:26;;;;;;;7.05;1.52;;;12.70;65.70;;;;;;5023988;28;20022;-61
2022/07/14 06:45:54;;;;;;;5.38;2.00;;;12.60;66.30;;;;;;5027378;28;20029;-61
2022/07/14 06:48:23;;;;;;;4.65;1.80;;;12.50;66.80;;;;;;5012138;28;20387;-64
2022/07/14 06:50:50;;;;;;;5.25;1.80;;;12.30;67.20;;;;;;5028869;28;20028;-61
2022/07/14 06:53:17;;;;;;;4.22;1.95;;;12.20;67.20;;;;;;5022276;28;20040;-61
2022/07/14 06:55:45;;;;;;;2.53;1.50;;;12.10;68.50;;;;;;5021824;28;20030;-62
2022/07/14 06:58:12;;;;;;;3.85;1.35;;;12.00;69.10;;;;;;5018405;28;20022;-61
2022/07/14 07:00:39;;;;;;;4.00;1.80;;;11.90;70.00;;;;;;5023196;28;20509;-62
2022/07/14 07:03:13;;;;;;;9.40;1.55;;;11.70;70.10;;;;;;5021944;28;20030;-61
2022/07/14 07:08:28;;;;;;;1.98;0.70;;;11.50;71.00;;;;;;5021240;28;20560;-61
2022/07/14 07:10:58;;;;;;;2.42;0.68;;;11.50;70.80;;;;;;5027792;28;20152;-61
2022/07/14 07:13:29;;;;;;;2.08;0.55;;;11.50;70.60;;;;;;5013326;28;20029;-60
2022/07/14 07:15:56;;;;;;;6.85;0.80;;;11.40;71.20;;;;;;5013612;28;20018;-61
2022/07/14 07:18:24;;;;;;;4.18;0.90;;;11.30;71.00;;;;;;5021826;28;20022;-63
2022/07/14 07:20:51;;;;;;;2.75;0.90;;;11.30;72.30;;;;;;5014993;28;20022;-65
2022/07/14 07:23:18;;;;;;;2.75;1.38;;;11.10;71.90;;;;;;5024457;28;20032;-62
2022/07/14 07:25:46;;;;;;;4.82;0.95;;;11.10;71.70;;;;;;5012343;28;20025;-62
2022/07/14 07:28:16;;;;;;;2.55;0.70;;;11.10;71.70;;;;;;5023806;28;20026;-62
2022/07/14 07:30:43;;;;;;;2.38;0.73;;;11.10;72.30;;;;;;5012266;28;20030;-61
2022/07/14 07:33:11;;;;;;;1.70;0.82;;;11.00;72.60;;;;;;5013152;28;20494;-62
2022/07/14 07:35:45;;;;;;;5.32;0.80;;;11.00;71.90;;;;;;5022242;28;20029;-63
2022/07/14 07:38:13;;;;;;;2.20;0.50;;;11.00;72.00;;;;;;5009941;28;20030;-62
2022/07/14 07:40:44;;;;;;;3.10;0.90;;;11.10;71.70;;;;;;5015022;28;20383;-61
2022/07/14 07:43:11;;;;;;;3.97;1.60;;;11.00;72.30;;;;;;5018920;28;20109;-61
2022/07/14 07:45:38;;;;;;;2.17;1.02;;;10.90;72.30;;;;;;5013873;28;20037;-62
2022/07/14 07:48:09;;;;;;;9.15;3.58;;;10.90;72.60;;;;;;5009187;28;20053;-65
2022/07/14 07:50:36;;;;;;;6.18;1.70;;;10.90;72.20;;;;;;5014843;28;20026;-61
2022/07/14 07:53:04;;;;;;;19.25;9.90;;;10.90;72.90;;;;;;5011141;28;20108;-61
2022/07/14 07:55:31;;;;;;;4.85;2.30;;;10.80;72.80;;;;;;5007448;28;20696;-63
2022/07/14 07:57:59;;;;;;;5.00;1.27;;;10.70;73.20;;;;;;5009201;28;20038;-61
2022/07/14 08:00:27;;;;;;;1.58;0.85;;;10.60;73.70;;;;;;5007378;28;20030;-60
2022/07/14 08:02:55;;;;;;;3.53;1.63;;;10.60;73.50;;;;;;5007744;28;20030;-61
2022/07/14 08:05:25;;;;;;;5.00;0.88;;;10.70;73.70;;;;;;5003394;28;20115;-61
2022/07/14 08:07:53;;;;;;;2.13;0.50;;;10.70;73.60;;;;;;5003468;28;20096;-62
2022/07/14 08:10:21;;;;;;;2.70;0.90;;;10.80;73.50;;;;;;5000807;28;20026;-64
2022/07/14 08:12:48;;;;;;;2.65;0.75;;;10.70;73.30;;;;;;5004691;28;20482;-60
2022/07/14 08:15:16;;;;;;;14.18;1.63;;;10.70;73.80;;;;;;5003687;28;20484;-63
2022/07/14 08:17:44;;;;;;;4.00;1.30;;;10.60;74.30;;;;;;5002966;28;20125;-62
2022/07/14 08:20:12;;;;;;;8.98;5.93;;;10.60;75.10;;;;;;5007709;28;20030;-62
2022/07/14 08:22:39;;;;;;;2.22;1.17;;;10.60;75.20;;;;;;5005272;28;20087;-62
2022/07/14 08:25:08;;;;;;;8.00;1.17;;;10.60;75.70;;;;;;5005942;28;20029;-62
2022/07/14 08:27:35;;;;;;;4.53;0.65;;;10.60;75.30;;;;;;5000321;28;20048;-63
2022/07/14 08:30:04;;;;;;;5.88;3.47;;;10.60;75.00;;;;;;5002234;28;20026;-61
2022/07/14 08:32:39;;;;;;;5.45;1.90;;;10.60;75.20;;;;;;5000841;28;20022;-62
2022/07/14 08:35:12;;;;;;;5.03;1.17;;;10.60;75.30;;;;;;5006646;28;20391;-61
2022/07/14 08:37:40;;;;;;;5.13;1.30;;;10.70;74.70;;;;;;5004380;28;20026;-61
2022/07/14 08:40:19;;;;;;;3.97;1.67;;;10.70;74.40;;;;;;5006984;28;20029;-60
2022/07/14 08:42:50;;;;;;;9.90;1.60;;;10.60;74.30;;;;;;5000537;28;20053;-62
2022/07/14 08:45:19;;;;;;;7.85;5.22;;;10.60;73.80;;;;;;5003212;28;20026;-61
2022/07/14 08:47:47;;;;;;;8.98;5.82;;;10.60;73.60;;;;;;5005088;28;20054;-61
2022/07/14 08:50:17;;;;;;;5.93;3.50;;;10.50;73.70;;;;;;5007156;28;20105;-63
2022/07/14 08:52:46;;;;;;;5.35;2.67;;;10.40;73.50;;;;;;5003889;28;20679;-62
2022/07/14 08:55:15;;;;;;;6.57;2.35;;;10.40;73.30;;;;;;5004215;28;20034;-62
2022/07/14 08:57:43;;;;;;;5.10;2.00;;;10.30;73.50;;;;;;5004458;28;20040;-61
2022/07/14 09:00:14;;;;;;;7.43;2.78;;;10.30;73.80;;;;;;5003421;28;20029;-62
2022/07/14 09:02:48;;;;;;;4.63;1.30;;;10.20;74.10;;;;;;5003890;28;20065;-61
2022/07/14 09:05:18;;;;;;;;;;;10.20;73.50;;;;;;5003223;28;20525;-61
2022/07/14 09:07:46;;;;;;;8.77;4.38;;;10.10;74.00;;;;;;5002454;28;19913;-62
2022/07/14 09:10:17;;;;;;;6.90;3.05;;;10.10;73.80;;;;;;5003418;28;20061;-62
2022/07/14 09:12:47;;;;;;;5.22;2.47;;;10.00;73.80;;;;;;5005118;28;20030;-62
2022/07/14 09:18:02;;;;;;;10.38;4.22;;;9.70;75.50;;;;;;5011596;28;20560;-61
2022/07/14 09:20:31;;;;;;;6.25;4.63;;;9.50;76.60;;;;;;5017919;28;20125;-61
2022/07/14 09:23:01;;;;;;;10.50;6.03;;;9.40;77.50;;;;;;5004671;28;20055;-61
2022/07/14 09:25:31;;;;;;;8.02;3.00;;;9.20;78.30;;;;;;5004364;28;20029;-61
2022/07/14 09:27:58;;;;;;;7.53;2.67;;;9.20;78.90;;;;;;5004951;28;20034;-62
2022/07/14 09:30:26;;;;;;;6.25;2.38;;;9.10;78.80;;;;;;5006381;28;20053;-62
2022/07/14 09:32:59;;;;;;;6.07;2.20;;;9.10;78.40;;;;;;5006227;28;20043;-62
2022/07/14 09:35:27;;;;;;;6.03;4.93;;;9.10;79.20;;;;;;5002781;28;20103;-62
2022/07/14 09:37:56;;;;;;;4.57;2.95;;;9.00;79.30;;;;;;5002959;28;20402;-62
2022/07/14 09:40:32;;;;;;;7.28;1.90;;;8.90;80.70;;;;;;5002015;28;20450;-62
2022/07/14 09:43:09;;;;;;;4.25;1.88;;;8.90;80.10;;;;;;5000745;28;20584;-62
2022/07/14 09:45:41;;;;;;;5.63;1.60;;;8.70;80.50;;;;;;5009599;28;20052;-63
2022/07/14 09:48:09;;;;;;;3.78;1.15;;;8.50;80.90;;;;;;5010880;28;20136;-62
2022/07/14 09:50:46;;;;;;;4.43;1.58;;;8.40;81.40;;;;;;5001648;28;20026;-59
2022/07/14 09:53:17;;;;;;;5.20;1.35;;;8.20;82.30;;;;;;5003750;28;20022;-62
2022/07/14 09:55:57;;;;;;;5.03;1.40;;;8.10;84.30;;;;;;5000981;28;20148;-61
2022/07/14 09:58:31;;;;;;;4.45;1.52;;;8.00;84.50;;;;;;5004392;28;20030;-61
2022/07/14 10:01:19;;;;;;;3.10;1.50;;;7.90;85.10;;;;;;5008452;28;20033;-62
2022/07/14 10:03:49;;;;;;;3.42;1.52;;;7.80;85.10;;;;;;4998387;28;20038;-62
2022/07/14 10:06:17;;;;;;;3.05;1.15;;;7.60;85.60;;;;;;5004947;28;20033;-61
2022/07/14 10:08:50;;;;;;;3.55;1.30;;;7.50;86.30;;;;;;5002969;28;20503;-61
2022/07/14 10:11:22;;;;;;;3.72;1.23;;;7.30;87.00;;;;;;5004319;28;20036;-62
2022/07/14 10:13:50;;;;;;;3.40;1.30;;;7.20;88.00;;;;;;5001693;28;20062;-61
2022/07/14 10:16:19;;;;;;;2.70;1.42;;;7.20;89.90;;;;;;5003963;28;20070;-64
2022/07/14 10:18:46;;;;;;;5.03;1.20;;;7.10;89.50;;;;;;5027665;28;20084;-63
2022/07/14 10:21:15;;;;;;;4.78;2.30;;;7.00;89.70;;;;;;5009215;28;20040;-61
2022/07/14 10:23:43;;;;;;;3.40;2.33;;;7.00;90.20;;;;;;5003113;28;20030;-62
2022/07/14 10:26:11;;;;;;;5.20;1.63;;;7.00;90.70;;;;;;4994830;28;20080;-62
2022/07/14 10:28:39;;;;;;;4.70;1.02;;;7.00;90.60;;;;;;5006868;28;20033;-62
2022/07/14 10:31:31;;;;;;;6.47;1.63;;;7.00;90.50;;;;;;5006789;28;20113;-62
2022/07/14 10:34:19;;;;;;;5.85;1.80;;;6.90;90.60;;;;;;5001111;28;20446;-61
2022/07/14 10:37:16;;;;;;;6.45;1.92;;;6.80;90.60;;;;;;5009078;28;20038;-62
2022/07/14 10:40:29;;;;;;;9.90;1.60;;;6.70;90.80;;;;;;5014616;28;20052;-62
2022/07/14 10:43:15;;;;;;;7.85;1.80;;;6.70;91.50;;;;;;4989256;28;20034;-63
2022/07/14 10:45:54;;;;;;;6.82;1.40;;;6.90;92.30;;;;;;5002858;28;20109;-62
2022/07/14 10:48:35;;;;;;;7.68;1.83;;;7.10;91.90;;;;;;5005314;28;20048;-64
2022/07/14 10:51:27;;;;;;;9.73;1.90;;;7.20;91.90;;;;;;5009207;28;20055;-63
2022/07/14 10:54:08;;;;;;;7.65;2.38;;;7.20;91.60;;;;;;5008721;28;20033;-62
2022/07/14 10:56:36;;;;;;;3.28;1.73;;;7.30;91.70;;;;;;5008138;28;20481;-62
2022/07/14 10:59:28;;;;;;;2.60;1.55;;;7.20;91.20;;;;;;5002018;28;20037;-62
2022/07/14 11:02:13;;;;;;;7.10;1.50;;;7.10;91.70;;;;;;5006175;28;20467;-62
2022/07/14 11:05:00;;;;;;;3.80;2.08;;;7.00;92.10;;;;;;5009878;28;20026;-62
2022/07/14 11:07:43;;;;;;;6.68;2.00;;;7.10;92.40;;;;;;5008356;28;20376;-62
2022/07/14 11:10:19;;;;;;;3.67;1.55;;;7.10;92.30;;;;;;5002655;28;20100;-62
2022/07/14 11:13:04;;;;;;;10.05;1.70;;;7.10;92.50;;;;;;5006041;28;20034;-63
2022/07/14 11:15:43;;;;;;;;;;;7.10;92.40;;;;;;5005460;28;20498;-62
2022/07/14 11:18:25;;;;;;;5.40;1.30;;;7.10;92.50;;;;;;5004398;28;19913;-61
2022/07/14 11:21:40;;;;;;;2.75;1.38;;;7.10;92.40;;;;;;5005925;28;20030;-63
2022/07/14 11:23:57;;;;;;;1.73;1.10;;;7.20;92.50;;;;;;4994773;28;20249;-61
2022/07/14 11:26:47;;;;;;;3.10;1.10;;;7.30;92.20;;;;;;5001479;28;20529;-63
2022/07/14 11:29:15;;;;;;;4.28;1.17;;;7.40;91.80;;;;;;5003776;28;20124;-63
2022/07/14 11:31:49;;;;;;;6.65;2.38;;;7.60;91.50;;;;;;5006643;28;20026;-62
2022/07/14 11:37:16;;;;;;;3.88;1.35;;;7.60;91.10;;;;;;5004813;28;20049;-62
2022/07/14 11:39:45;;;;;;;5.70;1.13;;;7.70;91.00;;;;;;5010453;28;20025;-61
2022/07/14 11:42:17;;;;;;;4.43;1.20;;;7.60;91.10;;;;;;5012235;28;20109;-61
2022/07/14 11:44:51;;;;;;;2.40;1.10;;;7.50;91.30;;;;;;5010639;28;20415;-62
2022/07/14 11:47:29;;;;;;;3.08;1.17;;;7.60;91.40;;;;;;5009282;28;20194;-62
2022/07/14 11:50:15;;;;;;;3.40;1.05;;;7.50;91.30;;;;;;5008987;28;20092;-63
2022/07/14 11:52:49;;;;;;;4.50;1.58;;;7.50;91.50;;;;;;5011516;28;20025;-61
2022/07/14 11:55:19;;;;;;;6.65;1.40;;;7.40;91.60;;;;;;5010799;28;20080;-62
2022/07/14 11:57:55;;;;;;;2.58;1.30;;;7.40;91.50;;;;;;5009483;28;20145;-61
2022/07/14 12:00:22;;;;;;;4.45;1.33;;;7.30;91.70;;;;;;5007250;28;20029;-61
2022/07/14 12:03:01;;;;;;;6.50;1.40;;;7.20;91.60;;;;;;5011344;28;20024;-61
2022/07/14 12:05:30;;;;;;;4.07;1.27;;;7.20;91.90;;;;;;5006832;28;20053;-63
2022/07/14 12:08:02;;;;;;;3.25;1.30;;;7.20;91.80;;;;;;5006481;28;20057;-63
2022/07/14 12:10:43;;;;;;;7.53;1.98;;;7.20;91.60;;;;;;5006318;28;20430;-62
2022/07/14 12:13:10;;;;;;;5.43;1.60;;;7.20;91.50;;;;;;5007568;28;20041;-62
2022/07/14 12:15:38;;;;;;;9.23;1.70;;;7.20;91.40;;;;;;5006374;28;20403;-61
2022/07/14 12:18:06;;;;;;;3.03;1.50;;;7.10;91.30;;;;;;5008856;28;20030;-59
2022/07/14 12:20:46;;;;;;;6.22;1.85;;;7.10;91.30;;;;;;5005604;28;20029;-63
2022/07/14 12:23:15;;;;;;;4.30;1.63;;;7.10;91.20;;;;;;5007320;28;20026;-62
2022/07/14 12:25:45;;;;;;;6.18;2.20;;;7.20;91.00;;;;;;5007432;28;20503;-63
2022/07/14 12:28:15;;;;;;;3.45;1.58;;;7.20;90.90;;;;;;5007725;28;20030;-62
2022/07/14 12:31:00;;;;;;;4.10;2.40;;;7.20;91.10;;;;;;5008374;28;20123;-62
2022/07/14 12:33:36;;;;;;;4.53;1.73;;;7.20;90.90;;;;;;5005841;28;20030;-63
2022/07/14 12:36:05;;;;;;;6.03;1.63;;;7.20;90.60;;;;;;5006521;28;20402;-63
2022/07/14 12:38:36;;;;;;;7.65;2.40;;;7.20;90.70;;;;;;5007498;28;20072;-62
2022/07/14 12:41:05;;;;;;;4.75;1.30;;;7.20;90.60;;;;;;5009157;28;20048;-61
2022/07/14 12:43:38;;;;;;;4.88;1.48;;;7.20;90.50;;;;;;5011239;28;20035;-62
2022/07/14 12:46:10;;;;;;;4.47;1.55;;;7.20;90.60;;;;;;5007935;28;20029;-62
2022/07/14 12:48:59;;;;;;;7.60;1.77;;;7.20;90.50;;;;;;5007631;28;20038;-63
2022/07/14 12:51:37;;;;;;;6.85;1.27;;;7.20;90.50;;;;;;5013190;28;20029;-63
2022/07/14 12:54:19;;;;;;;2.78;1.10;;;7.20;90.20;;;;;;5009718;28;20042;-62
2022/07/14 12:56:54;;;;;;;4.10;1.52;;;7.20;90.30;;;;;;5009195;28;20029;-62
2022/07/14 12:59:22;;;;;;;;;;;7.10;90.40;;;;;;5013573;28;20111;-63
2022/07/14 13:01:56;;;;;;;2.88;0.90;;;7.20;90.30;;;;;;5009414;28;19913;-64
2022/07/14 13:04:36;;;;;;;6.17;1.40;;;7.10;90.50;;;;;;5010727;28;20021;-62
2022/07/14 13:07:14;;;;;;;5.50;1.38;;;7.00;90.50;;;;;;5029714;28;20040;-62
2022/07/14 13:10:01;;;;;;;2.72;1.80;;;7.00;90.80;;;;;;5012268;28;20030;-62
2022/07/14 13:12:29;;;;;;;5.38;1.20;;;6.90;90.60;;;;;;4998529;28;20483;-62
2022/07/14 13:15:09;;;;;;;3.75;1.10;;;6.90;91.00;;;;;;5007949;28;20099;-63
2022/07/14 13:18:02;;;;;;;4.70;0.93;;;6.90;91.10;;;;;;5008444;28;20028;-62
2022/07/14 13:20:48;;;;;;;4.45;1.23;;;6.80;91.10;;;;;;5005022;28;20056;-62